Huvudsida
METAR-TAF:

METAR-TAF

Flygplatser :

Lusaka International Airport

Lusaka, Zambia

latitud: 15-19-51S, longitud: 028-27-09E, höjd: 1152 m

Aktuellt väderrapport

Denna rapport gjordes för 34 minuter sedan, klockan 14:00 UTC
Vind 13 kt från ost
Temperatur 33°C
Fuktighet 19%
Tryck 1017 hPa
Sikt 10 km eller mer
Spridda moln på en höjd av 4800 ft

METAR: FLKK 161400Z 10013KT 9999 SCT048 33/06 Q1017

Tid: 16:34 (14:34 UTC)


TAF: saknas

Aktuella väderrapporter och prognoser från 4000 flygplatser (METAR- och TAF-rapporter).

De tillgängliga stationerna syns som gula och röda prickar på kartan.

För musen över prickarna för att se namnen på stationerna.

Klicka sedan för att få väderrapporter och prognoser.

För att ändra kartan: Klicka på de gröna knapparna med ett svart kors på för att zooma in; den gröna knappen med ett streck på för att zooma ut; eller på de gröna pilarna för angränsande kartor.


METAR-TAF: